createdAt,value
2022-08-17T00:00:34.995Z,18.92
2022-08-17T00:01:24.126Z,18.92
2022-08-17T00:02:26.953Z,18.90
2022-08-17T00:03:23.129Z,18.92
2022-08-17T00:04:22.100Z,18.90
2022-08-17T00:05:22.093Z,18.88
2022-08-17T00:06:22.082Z,18.83
2022-08-17T00:07:22.072Z,18.80
2022-08-17T00:08:22.052Z,18.77
2022-08-17T00:09:22.069Z,18.75
2022-08-17T00:10:22.020Z,18.73
2022-08-17T00:11:22.023Z,18.73
2022-08-17T00:12:51.263Z,18.74
2022-08-17T00:13:22.995Z,18.75
2022-08-17T00:14:21.989Z,18.77
2022-08-17T00:15:21.991Z,18.77
2022-08-17T00:16:21.964Z,18.83
2022-08-17T00:17:22.951Z,18.86
2022-08-17T00:19:01.411Z,18.93
2022-08-17T00:19:22.941Z,18.95
2022-08-17T00:20:23.364Z,18.96
2022-08-17T00:21:25.092Z,18.99
2022-08-17T00:22:35.122Z,18.99
2022-08-17T00:23:22.882Z,18.99
2022-08-17T00:24:21.881Z,18.98
2022-08-17T00:25:21.863Z,18.96
2022-08-17T00:26:35.807Z,18.98
2022-08-17T00:27:22.850Z,18.96
2022-08-17T00:28:21.833Z,18.93
2022-08-17T00:29:21.821Z,18.96
2022-08-17T00:30:21.803Z,18.98
2022-08-17T00:31:21.803Z,18.98
2022-08-17T00:33:12.247Z,18.99
2022-08-17T00:33:23.573Z,18.98
2022-08-17T00:34:21.763Z,18.96
2022-08-17T00:35:21.753Z,18.92
2022-08-17T00:36:21.746Z,18.90
2022-08-17T00:37:21.743Z,18.88
2022-08-17T00:38:21.742Z,18.86
2022-08-17T00:39:21.712Z,18.83
2022-08-17T00:40:21.702Z,18.80
2022-08-17T00:41:21.694Z,18.75
2022-08-17T00:42:21.674Z,18.75
2022-08-17T00:43:21.664Z,18.74
2022-08-17T00:44:21.673Z,18.73
2022-08-17T00:45:22.643Z,18.75
2022-08-17T00:46:21.625Z,18.77
2022-08-17T00:47:21.615Z,18.80
2022-08-17T00:48:29.625Z,18.81
2022-08-17T00:49:22.625Z,18.84
2022-08-17T00:50:21.584Z,18.84
2022-08-17T00:51:21.574Z,18.86
2022-08-17T00:52:21.567Z,18.88
2022-08-17T00:53:21.554Z,18.88
2022-08-17T00:54:21.544Z,18.88
2022-08-17T00:55:21.635Z,18.89
2022-08-17T00:56:21.517Z,18.89
2022-08-17T00:57:21.513Z,18.88
2022-08-17T00:58:30.437Z,18.88
2022-08-17T00:59:22.493Z,18.89
2022-08-17T01:00:21.515Z,18.89
2022-08-17T01:01:22.085Z,18.89
2022-08-17T01:02:21.475Z,18.88
2022-08-17T01:03:21.437Z,18.90
2022-08-17T01:04:21.428Z,18.90
2022-08-17T01:05:21.418Z,18.93
2022-08-17T01:06:21.437Z,18.92
2022-08-17T01:07:21.431Z,18.93
2022-08-17T01:08:21.377Z,18.98
2022-08-17T01:09:21.408Z,19.02
2022-08-17T01:11:00.476Z,19.04
2022-08-17T01:11:22.377Z,19.07
2022-08-17T01:12:21.338Z,19.04
2022-08-17T01:13:21.332Z,19.02
2022-08-17T01:14:21.319Z,19.00
2022-08-17T01:15:21.308Z,18.99
2022-08-17T01:16:21.298Z,18.99
2022-08-17T01:17:21.316Z,18.98
2022-08-17T01:18:21.296Z,18.98
2022-08-17T01:19:21.267Z,18.95
2022-08-17T01:20:21.259Z,18.93
2022-08-17T01:21:21.253Z,18.90
2022-08-17T01:22:21.219Z,18.83
2022-08-17T01:23:21.396Z,18.73
2022-08-17T01:24:21.199Z,18.60
2022-08-17T01:25:21.200Z,18.53
2022-08-17T01:26:21.180Z,18.45
2022-08-17T01:27:21.175Z,18.41
2022-08-17T01:28:53.073Z,18.34
2022-08-17T01:29:22.180Z,18.29
2022-08-17T01:30:57.879Z,18.26
2022-08-17T01:31:22.120Z,18.25
2022-08-17T01:32:21.108Z,18.22
2022-08-17T01:33:21.099Z,18.20
2022-08-17T01:34:21.083Z,18.19
2022-08-17T01:35:21.091Z,18.19
2022-08-17T01:36:21.060Z,18.20
2022-08-17T01:37:21.061Z,18.20
2022-08-17T01:38:27.157Z,18.23
2022-08-17T01:39:22.033Z,18.29
2022-08-17T01:40:21.062Z,18.31
2022-08-17T01:41:21.011Z,18.35
2022-08-17T01:42:20.990Z,18.40
2022-08-17T01:43:20.989Z,18.43
2022-08-17T01:44:20.970Z,18.44
2022-08-17T01:45:20.962Z,18.45
2022-08-17T01:46:41.950Z,18.45
2022-08-17T01:47:20.941Z,18.44
2022-08-17T01:48:20.930Z,18.44
2022-08-17T01:49:20.955Z,18.41
2022-08-17T01:50:20.911Z,18.40
2022-08-17T01:51:20.922Z,18.38
2022-08-17T01:52:20.881Z,18.35
2022-08-17T01:53:20.873Z,18.34
2022-08-17T01:54:20.865Z,18.31
2022-08-17T01:55:24.560Z,18.31
2022-08-17T01:56:21.861Z,18.28
2022-08-17T01:57:20.832Z,18.28
2022-08-17T01:58:20.822Z,18.25
2022-08-17T01:59:20.812Z,18.26
2022-08-17T02:00:20.793Z,18.23
2022-08-17T02:01:20.833Z,18.23
2022-08-17T02:02:30.253Z,18.20
2022-08-17T02:03:21.763Z,18.19
2022-08-17T02:04:20.753Z,18.19
2022-08-17T02:05:20.742Z,18.18
2022-08-17T02:06:27.658Z,18.19
2022-08-17T02:07:21.762Z,18.19
2022-08-17T02:08:37.135Z,18.19
2022-08-17T02:09:23.273Z,18.18
2022-08-17T02:10:20.693Z,18.15
2022-08-17T02:11:20.675Z,18.15
2022-08-17T02:12:38.790Z,18.11
2022-08-17T02:13:21.704Z,18.11
2022-08-17T02:14:20.644Z,18.11
2022-08-17T02:15:20.642Z,18.11
2022-08-17T02:16:20.624Z,18.10
2022-08-17T02:17:20.614Z,18.08
2022-08-17T02:18:20.604Z,18.07
2022-08-17T02:19:20.625Z,18.04
2022-08-17T02:20:41.351Z,18.03
2022-08-17T02:21:21.574Z,18.01
2022-08-17T02:22:20.555Z,18.04
2022-08-17T02:23:20.554Z,18.01
2022-08-17T02:24:58.755Z,18.01
2022-08-17T02:25:21.545Z,18.00
2022-08-17T02:26:24.238Z,18.01
2022-08-17T02:27:21.505Z,18.01
2022-08-17T02:28:20.495Z,18.01
2022-08-17T02:29:20.487Z,18.00
2022-08-17T02:30:59.699Z,18.00
2022-08-17T02:31:21.483Z,17.97
2022-08-17T02:32:25.418Z,17.95
2022-08-17T02:33:21.444Z,17.95
2022-08-17T02:34:20.435Z,17.95
2022-08-17T02:35:20.417Z,17.94
2022-08-17T02:36:25.421Z,17.94
2022-08-17T02:37:21.404Z,17.94
2022-08-17T02:38:20.385Z,17.90
2022-08-17T02:39:20.377Z,17.89
2022-08-17T02:40:35.603Z,17.86
2022-08-17T02:41:21.377Z,17.85
2022-08-17T02:42:20.341Z,17.82
2022-08-17T02:43:20.336Z,17.79
2022-08-17T02:44:38.922Z,17.76
2022-08-17T02:45:21.307Z,17.72
2022-08-17T02:46:20.313Z,17.68
2022-08-17T02:47:20.311Z,17.67
2022-08-17T02:48:30.778Z,17.63
2022-08-17T02:49:21.268Z,17.63
2022-08-17T02:50:20.260Z,17.59
2022-08-17T02:51:20.249Z,17.57
2022-08-17T02:52:42.705Z,17.57
2022-08-17T02:53:21.248Z,17.57
2022-08-17T02:54:40.614Z,17.59
2022-08-17T02:55:21.208Z,17.57
2022-08-17T02:56:20.181Z,17.56
2022-08-17T02:57:20.176Z,17.54
2022-08-17T02:58:34.714Z,17.54
2022-08-17T02:59:21.171Z,17.54
2022-08-17T03:00:20.139Z,17.54
2022-08-17T03:01:20.140Z,17.52
2022-08-17T03:02:20.118Z,17.52
2022-08-17T03:03:20.111Z,17.54
2022-08-17T03:04:20.120Z,17.56
2022-08-17T03:05:20.091Z,17.56
2022-08-17T03:06:20.070Z,17.54
2022-08-17T03:07:20.063Z,17.52
2022-08-17T03:08:20.052Z,17.54
2022-08-17T03:09:20.041Z,17.52
2022-08-17T03:10:20.049Z,17.52
2022-08-17T03:11:20.021Z,17.51
2022-08-17T03:12:20.000Z,17.49
2022-08-17T03:13:20.001Z,17.46
2022-08-17T03:14:19.981Z,17.46
2022-08-17T03:15:20.998Z,17.42
2022-08-17T03:16:19.981Z,17.41
2022-08-17T03:17:19.950Z,17.44
2022-08-17T03:18:24.841Z,17.45
2022-08-17T03:19:20.928Z,17.44
2022-08-17T03:20:19.911Z,17.46
2022-08-17T03:21:19.924Z,17.46
2022-08-17T03:22:35.672Z,17.48
2022-08-17T03:23:24.267Z,17.49
2022-08-17T03:24:19.870Z,17.51
2022-08-17T03:25:19.872Z,17.52
2022-08-17T03:26:19.870Z,17.51
2022-08-17T03:27:19.840Z,17.49
2022-08-17T03:28:19.832Z,17.51
2022-08-17T03:29:19.812Z,17.52
2022-08-17T03:30:21.249Z,17.51
2022-08-17T03:31:19.792Z,17.52
2022-08-17T03:32:19.803Z,17.56
2022-08-17T03:33:19.776Z,17.57
2022-08-17T03:34:19.753Z,17.59
2022-08-17T03:35:19.750Z,17.60
2022-08-17T03:36:19.741Z,17.63
2022-08-17T03:37:19.723Z,17.64
2022-08-17T03:38:19.744Z,17.63
2022-08-17T03:39:19.702Z,17.65
2022-08-17T03:40:41.082Z,17.64
2022-08-17T03:41:20.685Z,17.60
2022-08-17T03:42:32.396Z,17.60
2022-08-17T03:43:20.673Z,17.57
2022-08-17T03:44:19.643Z,17.57
2022-08-17T03:45:19.634Z,17.57
2022-08-17T03:46:32.457Z,17.54
2022-08-17T03:47:20.611Z,17.51
2022-08-17T03:48:19.594Z,17.46
2022-08-17T03:49:19.613Z,17.45
2022-08-17T03:50:19.575Z,17.44
2022-08-17T03:51:19.564Z,17.41
2022-08-17T03:52:19.554Z,17.34
2022-08-17T03:53:19.552Z,17.33
2022-08-17T03:54:19.535Z,17.33
2022-08-17T03:55:19.547Z,17.31
2022-08-17T03:56:20.504Z,17.31
2022-08-17T03:57:19.527Z,17.33
2022-08-17T03:58:19.485Z,17.34
2022-08-17T03:59:21.024Z,17.36
2022-08-17T04:00:19.465Z,17.34
2022-08-17T04:01:19.512Z,17.38
2022-08-17T04:02:19.444Z,17.39
2022-08-17T04:03:19.435Z,17.41
2022-08-17T04:04:19.415Z,17.41
2022-08-17T04:05:20.414Z,17.42
2022-08-17T04:06:19.395Z,17.42
2022-08-17T04:07:19.406Z,17.44
2022-08-17T04:08:19.375Z,17.46
2022-08-17T04:09:19.367Z,17.48
2022-08-17T04:10:21.013Z,17.48
2022-08-17T04:11:19.347Z,17.46
2022-08-17T04:12:19.336Z,17.46
2022-08-17T04:13:24.205Z,17.46
2022-08-17T04:14:20.306Z,17.42
2022-08-17T04:15:19.297Z,17.41
2022-08-17T04:16:19.291Z,17.38
2022-08-17T04:17:19.277Z,17.36
2022-08-17T04:18:19.318Z,17.34
2022-08-17T04:19:19.258Z,17.33
2022-08-17T04:20:19.258Z,17.31
2022-08-17T04:21:19.238Z,17.30
2022-08-17T04:22:33.203Z,17.29
2022-08-17T04:23:20.227Z,17.29
2022-08-17T04:24:19.197Z,17.29
2022-08-17T04:25:19.177Z,17.30
2022-08-17T04:26:53.024Z,17.30
2022-08-17T04:27:20.167Z,17.29
2022-08-17T04:28:19.147Z,17.30
2022-08-17T04:29:19.158Z,17.30
2022-08-17T04:30:19.127Z,17.30
2022-08-17T04:31:19.117Z,17.33
2022-08-17T04:32:58.377Z,17.34
2022-08-17T04:33:20.123Z,17.38
2022-08-17T04:34:19.872Z,17.39
2022-08-17T04:35:19.100Z,17.41
2022-08-17T04:36:19.059Z,17.44
2022-08-17T04:37:19.039Z,17.48
2022-08-17T04:38:19.051Z,17.54
2022-08-17T04:39:19.029Z,17.56
2022-08-17T04:40:19.066Z,17.60
2022-08-17T04:41:19.018Z,17.64
2022-08-17T04:42:18.990Z,17.68
2022-08-17T04:43:19.046Z,17.72
2022-08-17T04:44:37.031Z,17.76
2022-08-17T04:45:19.959Z,17.80
2022-08-17T04:46:18.971Z,17.83
2022-08-17T04:47:18.930Z,17.83
2022-08-17T04:48:18.928Z,17.87
2022-08-17T04:49:18.948Z,17.86
2022-08-17T04:50:18.927Z,17.85
2022-08-17T04:51:18.895Z,17.80
2022-08-17T04:52:32.256Z,17.79
2022-08-17T04:53:19.870Z,17.76
2022-08-17T04:54:18.860Z,17.74
2022-08-17T04:55:18.841Z,17.74
2022-08-17T04:56:19.044Z,17.76
2022-08-17T04:57:18.850Z,17.78
2022-08-17T04:58:18.811Z,17.80
2022-08-17T04:59:18.801Z,17.83
2022-08-17T05:00:18.791Z,17.87
2022-08-17T05:01:23.229Z,17.90
2022-08-17T05:02:19.801Z,17.95
2022-08-17T05:03:18.762Z,18.03
2022-08-17T05:04:33.402Z,18.10
2022-08-17T05:05:19.741Z,18.16
2022-08-17T05:06:18.731Z,18.22
2022-08-17T05:07:23.503Z,18.29
2022-08-17T05:08:19.734Z,18.35
2022-08-17T05:09:18.692Z,18.44
2022-08-17T05:10:18.682Z,18.49
2022-08-17T05:11:18.674Z,18.55
2022-08-17T05:12:18.662Z,18.59
2022-08-17T05:13:18.672Z,18.65
2022-08-17T05:14:18.645Z,18.70
2022-08-17T05:15:18.623Z,18.74
2022-08-17T05:16:18.622Z,18.75
2022-08-17T05:17:18.603Z,18.75
2022-08-17T05:18:18.602Z,18.78
2022-08-17T05:19:18.624Z,18.80
2022-08-17T05:20:18.571Z,18.81
2022-08-17T05:21:18.557Z,18.84
2022-08-17T05:22:18.544Z,18.86
2022-08-17T05:23:18.532Z,18.86
2022-08-17T05:24:39.114Z,18.86
2022-08-17T05:25:19.534Z,18.86
2022-08-17T05:26:26.319Z,18.84
2022-08-17T05:27:19.496Z,18.86
2022-08-17T05:28:18.505Z,18.86
2022-08-17T05:29:18.454Z,18.88
2022-08-17T05:30:18.454Z,18.89
2022-08-17T05:31:18.458Z,18.86
2022-08-17T05:32:37.773Z,18.83
2022-08-17T05:33:19.416Z,18.84
2022-08-17T05:34:18.405Z,18.83
2022-08-17T05:35:18.394Z,18.81
2022-08-17T05:36:43.414Z,18.81
2022-08-17T05:37:19.373Z,18.78
2022-08-17T05:38:18.355Z,18.78
2022-08-17T05:39:18.346Z,18.80
2022-08-17T05:40:18.336Z,18.80
2022-08-17T05:41:18.316Z,18.83
2022-08-17T05:42:18.337Z,18.86
2022-08-17T05:43:18.305Z,18.90
2022-08-17T05:44:18.287Z,18.96
2022-08-17T05:45:39.877Z,19.00
2022-08-17T05:46:19.267Z,19.09
2022-08-17T05:47:18.262Z,19.16
2022-08-17T05:48:18.260Z,19.26
2022-08-17T05:49:18.229Z,19.31
2022-08-17T05:50:19.586Z,19.36
2022-08-17T05:51:19.219Z,19.40
2022-08-17T05:52:18.898Z,19.48
2022-08-17T05:53:18.209Z,19.58
2022-08-17T05:54:18.176Z,19.66
2022-08-17T05:55:18.162Z,19.76
2022-08-17T05:56:30.179Z,19.85
2022-08-17T05:57:20.873Z,19.91
2022-08-17T05:58:18.130Z,20.00
2022-08-17T05:59:18.138Z,20.09
2022-08-17T06:00:20.160Z,20.18
2022-08-17T06:01:18.155Z,20.22
2022-08-17T06:02:18.082Z,20.36
2022-08-17T06:03:18.080Z,20.55
2022-08-17T06:04:18.088Z,20.66
2022-08-17T06:05:18.084Z,20.75
2022-08-17T06:06:18.045Z,20.85
2022-08-17T06:07:18.023Z,21.02
2022-08-17T06:08:18.021Z,21.27
2022-08-17T06:09:24.765Z,21.42
2022-08-17T06:10:19.018Z,21.51
2022-08-17T06:11:19.769Z,21.64
2022-08-17T06:12:19.871Z,21.91
2022-08-17T06:13:17.961Z,22.14
2022-08-17T06:14:17.959Z,22.35
2022-08-17T06:15:17.941Z,22.48
2022-08-17T06:16:33.859Z,22.44
2022-08-17T06:17:18.914Z,22.50
2022-08-17T06:18:19.204Z,22.60
2022-08-17T06:19:17.892Z,22.76
2022-08-17T06:20:17.883Z,22.91
2022-08-17T06:21:17.874Z,23.09
2022-08-17T06:22:18.885Z,23.25
2022-08-17T06:23:17.851Z,23.43
2022-08-17T06:24:17.843Z,23.55
2022-08-17T06:25:17.827Z,23.59
2022-08-17T06:26:17.822Z,23.55
2022-08-17T06:27:17.834Z,23.66
2022-08-17T06:28:17.794Z,23.83
2022-08-17T06:29:18.875Z,24.08
2022-08-17T06:30:17.778Z,24.17
2022-08-17T06:31:17.765Z,24.06
2022-08-17T06:32:17.754Z,23.96
2022-08-17T06:33:17.757Z,23.83
2022-08-17T06:34:17.735Z,23.69
2022-08-17T06:35:17.722Z,23.50
2022-08-17T06:36:17.724Z,23.34
2022-08-17T06:37:17.696Z,23.24
2022-08-17T06:38:37.007Z,23.12
2022-08-17T06:39:18.686Z,22.91
2022-08-17T06:40:17.667Z,22.72
2022-08-17T06:41:17.655Z,22.65
2022-08-17T06:43:02.513Z,22.55
2022-08-17T06:43:18.649Z,22.41
2022-08-17T06:44:43.513Z,22.33
2022-08-17T06:45:18.618Z,22.30
2022-08-17T06:46:17.599Z,22.23
2022-08-17T06:47:28.815Z,22.13
2022-08-17T06:48:18.591Z,22.14
2022-08-17T06:49:17.586Z,22.14
2022-08-17T06:50:17.560Z,22.20
2022-08-17T06:51:17.538Z,22.26
2022-08-17T06:52:37.123Z,22.29
2022-08-17T06:53:18.518Z,22.29
2022-08-17T06:54:17.538Z,22.32
2022-08-17T06:55:18.095Z,22.32
2022-08-17T06:56:17.489Z,22.29
2022-08-17T06:57:17.479Z,22.23
2022-08-17T06:58:17.469Z,22.30
2022-08-17T06:59:17.451Z,22.44
2022-08-17T07:00:17.460Z,22.54
2022-08-17T07:01:17.470Z,22.68
2022-08-17T07:02:17.420Z,22.84
2022-08-17T07:03:17.410Z,22.98
2022-08-17T07:04:17.400Z,23.10
2022-08-17T07:05:17.410Z,23.23
2022-08-17T07:06:17.380Z,23.36
2022-08-17T07:07:17.361Z,23.47
2022-08-17T07:08:17.352Z,23.59
2022-08-17T07:09:17.342Z,23.73
2022-08-17T07:10:17.342Z,23.84
2022-08-17T07:11:17.342Z,23.98
2022-08-17T07:12:17.311Z,24.10
2022-08-17T07:13:17.293Z,24.24
2022-08-17T07:14:17.579Z,24.40
2022-08-17T07:15:17.273Z,24.58
2022-08-17T07:16:17.274Z,24.76
2022-08-17T07:17:17.296Z,24.85
2022-08-17T07:18:17.261Z,24.91
2022-08-17T07:19:17.244Z,24.95
2022-08-17T07:20:17.223Z,24.96
2022-08-17T07:21:19.113Z,24.98
2022-08-17T07:22:17.264Z,24.98
2022-08-17T07:23:17.184Z,24.91
2022-08-17T07:24:29.839Z,24.78
2022-08-17T07:25:18.164Z,24.69
2022-08-17T07:26:17.156Z,24.61
2022-08-17T07:27:17.145Z,24.54
2022-08-17T07:28:17.155Z,24.48
2022-08-17T07:29:17.145Z,24.45
2022-08-17T07:30:17.114Z,24.45
2022-08-17T07:31:17.114Z,24.48
2022-08-17T07:32:17.086Z,24.47
2022-08-17T07:33:17.085Z,24.47
2022-08-17T07:34:17.095Z,24.48
2022-08-17T07:35:17.080Z,24.50
2022-08-17T07:36:17.049Z,24.55
2022-08-17T07:37:17.028Z,24.58
2022-08-17T07:38:25.788Z,24.63
2022-08-17T07:39:18.027Z,24.68
2022-08-17T07:40:17.238Z,24.66
2022-08-17T07:41:16.994Z,24.68
2022-08-17T07:42:16.981Z,24.69
2022-08-17T07:43:22.071Z,24.69
2022-08-17T07:44:17.989Z,24.69
2022-08-17T07:45:16.949Z,24.70
2022-08-17T07:46:16.939Z,24.73
2022-08-17T07:47:16.920Z,24.73
2022-08-17T07:48:16.919Z,24.68
2022-08-17T07:49:16.908Z,24.66
2022-08-17T07:50:16.939Z,24.65
2022-08-17T07:51:16.880Z,24.66
2022-08-17T07:52:47.415Z,24.73
2022-08-17T07:53:17.861Z,24.76
2022-08-17T07:54:16.850Z,24.81
2022-08-17T07:55:16.843Z,24.77
2022-08-17T07:56:16.852Z,24.78
2022-08-17T07:57:16.811Z,24.84
2022-08-17T07:58:16.811Z,24.91
2022-08-17T07:59:16.793Z,24.99
2022-08-17T08:00:16.828Z,25.07
2022-08-17T08:01:17.809Z,25.13
2022-08-17T08:02:16.987Z,25.17
2022-08-17T08:03:16.742Z,25.22
2022-08-17T08:04:19.524Z,25.25
2022-08-17T08:05:29.857Z,25.25
2022-08-17T08:06:17.722Z,25.25
2022-08-17T08:07:16.705Z,25.25
2022-08-17T08:08:16.732Z,25.32
2022-08-17T08:09:16.685Z,25.46
2022-08-17T08:10:16.674Z,25.63
2022-08-17T08:11:16.664Z,25.96
2022-08-17T08:12:16.666Z,26.19
2022-08-17T08:13:16.652Z,26.38
2022-08-17T08:14:16.656Z,26.51
2022-08-17T08:15:16.616Z,26.58
2022-08-17T08:16:16.615Z,26.59
2022-08-17T08:17:16.595Z,26.66
2022-08-17T08:18:16.586Z,26.73
2022-08-17T08:19:20.871Z,26.80
2022-08-17T08:20:42.480Z,26.88
2022-08-17T08:21:17.548Z,26.97
2022-08-17T08:22:16.547Z,27.10
2022-08-17T08:23:16.539Z,27.11
2022-08-17T08:24:16.528Z,27.10
2022-08-17T08:25:16.528Z,27.05
2022-08-17T08:26:18.558Z,27.00
2022-08-17T08:27:16.488Z,26.88
2022-08-17T08:28:16.477Z,26.63
2022-08-17T08:29:16.468Z,26.51
2022-08-17T08:30:16.458Z,26.51
2022-08-17T08:31:16.458Z,26.58
2022-08-17T08:32:16.442Z,26.56
2022-08-17T08:33:16.423Z,26.52
2022-08-17T08:34:53.184Z,26.41
2022-08-17T08:35:17.410Z,26.44
2022-08-17T08:36:56.871Z,26.40
2022-08-17T08:37:22.618Z,26.33
2022-08-17T08:38:17.370Z,26.28
2022-08-17T08:39:16.360Z,26.21
2022-08-17T08:40:16.344Z,26.15
2022-08-17T08:41:16.347Z,26.10
2022-08-17T08:42:16.352Z,26.03
2022-08-17T08:43:16.335Z,25.99
2022-08-17T08:44:16.302Z,25.95
2022-08-17T08:45:16.295Z,25.93
2022-08-17T08:46:16.302Z,25.90
2022-08-17T08:47:16.273Z,25.77
2022-08-17T08:48:22.847Z,25.62
2022-08-17T08:49:17.251Z,25.51
2022-08-17T08:50:37.006Z,25.48
2022-08-17T08:51:17.225Z,25.43
2022-08-17T08:52:16.213Z,25.41
2022-08-17T08:53:16.216Z,25.38
2022-08-17T08:54:16.203Z,25.38
2022-08-17T08:55:16.182Z,25.40
2022-08-17T08:56:16.164Z,25.41
2022-08-17T08:57:29.048Z,25.36
2022-08-17T08:58:32.146Z,25.32
2022-08-17T08:59:17.205Z,25.26
2022-08-17T09:00:16.126Z,25.21
2022-08-17T09:01:16.977Z,25.16
2022-08-17T09:02:16.097Z,25.06
2022-08-17T09:03:16.103Z,24.95
2022-08-17T09:04:24.649Z,24.96
2022-08-17T09:05:17.105Z,24.96
2022-08-17T09:06:37.423Z,25.01
2022-08-17T09:07:17.057Z,25.06
2022-08-17T09:08:16.036Z,25.03
2022-08-17T09:09:16.027Z,25.04
2022-08-17T09:10:16.008Z,25.06
2022-08-17T09:11:16.028Z,25.04
2022-08-17T09:12:16.010Z,25.03
2022-08-17T09:13:15.977Z,24.95
2022-08-17T09:14:21.760Z,24.89
2022-08-17T09:15:16.959Z,24.80
2022-08-17T09:16:15.948Z,24.73
2022-08-17T09:17:16.392Z,24.58
2022-08-17T09:18:59.333Z,24.53
2022-08-17T09:19:16.919Z,24.48
2022-08-17T09:20:27.519Z,24.40
2022-08-17T09:21:18.254Z,24.36
2022-08-17T09:22:15.950Z,24.32
2022-08-17T09:23:15.869Z,24.35
2022-08-17T09:24:15.871Z,24.33
2022-08-17T09:25:16.853Z,24.36
2022-08-17T09:26:15.840Z,24.38
2022-08-17T09:27:15.833Z,24.40
2022-08-17T09:28:15.840Z,24.42
2022-08-17T09:29:15.820Z,24.45
2022-08-17T09:30:15.793Z,24.43
2022-08-17T09:31:15.781Z,24.43
2022-08-17T09:32:15.772Z,24.47
2022-08-17T09:33:15.771Z,24.47
2022-08-17T09:34:15.772Z,24.48
2022-08-17T09:35:15.751Z,24.38
2022-08-17T09:36:15.733Z,24.29
2022-08-17T09:37:15.730Z,24.14
2022-08-17T09:38:15.703Z,24.11
2022-08-17T09:39:15.703Z,24.10
2022-08-17T09:40:15.820Z,24.10
2022-08-17T09:41:15.674Z,24.06
2022-08-17T09:42:15.664Z,24.08
2022-08-17T09:43:15.657Z,24.10
2022-08-17T09:44:23.290Z,24.03
2022-08-17T09:45:16.655Z,23.98
2022-08-17T09:46:15.615Z,23.96
2022-08-17T09:47:15.616Z,23.96
2022-08-17T09:48:15.604Z,23.96
2022-08-17T09:49:15.586Z,23.99
2022-08-17T09:50:15.622Z,24.05
2022-08-17T09:51:15.595Z,24.06
2022-08-17T09:52:15.554Z,24.13
2022-08-17T09:53:15.545Z,24.11
2022-08-17T09:54:37.951Z,24.18
2022-08-17T09:55:16.529Z,24.26
2022-08-17T09:56:15.509Z,24.38
2022-08-17T09:57:29.927Z,24.47
2022-08-17T09:58:16.487Z,24.58
2022-08-17T09:59:15.496Z,24.73
2022-08-17T10:00:15.505Z,24.86
2022-08-17T10:01:15.523Z,24.95
2022-08-17T10:02:15.448Z,24.99
2022-08-17T10:03:15.462Z,25.13
2022-08-17T10:04:17.757Z,25.26
2022-08-17T10:05:15.409Z,25.35
2022-08-17T10:06:21.628Z,25.53
2022-08-17T10:07:16.389Z,25.70
2022-08-17T10:08:15.398Z,25.88
2022-08-17T10:09:15.370Z,25.91
2022-08-17T10:10:15.349Z,25.90
2022-08-17T10:11:15.359Z,25.83
2022-08-17T10:12:17.205Z,25.75
2022-08-17T10:13:15.319Z,25.70
2022-08-17T10:14:37.457Z,25.66
2022-08-17T10:15:17.398Z,25.70
2022-08-17T10:16:15.295Z,25.75
2022-08-17T10:17:15.283Z,25.73
2022-08-17T10:18:15.261Z,25.68
2022-08-17T10:19:15.261Z,25.77
2022-08-17T10:20:15.381Z,25.70
2022-08-17T10:21:15.232Z,25.72
2022-08-17T10:22:35.244Z,25.75
2022-08-17T10:23:16.217Z,25.66
2022-08-17T10:24:15.240Z,25.62
2022-08-17T10:25:21.360Z,25.59
2022-08-17T10:26:16.181Z,25.62
2022-08-17T10:27:15.170Z,25.51
2022-08-17T10:28:20.172Z,25.46
2022-08-17T10:29:16.139Z,25.35
2022-08-17T10:30:15.192Z,25.26
2022-08-17T10:31:34.399Z,25.28
2022-08-17T10:32:16.107Z,25.17
2022-08-17T10:33:15.120Z,25.16
2022-08-17T10:34:15.080Z,25.25
2022-08-17T10:35:15.070Z,25.35
2022-08-17T10:36:15.064Z,25.60
2022-08-17T10:37:15.072Z,25.66
2022-08-17T10:38:15.039Z,25.77
2022-08-17T10:39:15.060Z,25.91
2022-08-17T10:40:15.154Z,26.22
2022-08-17T10:41:15.023Z,26.56
2022-08-17T10:42:15.021Z,26.88
2022-08-17T10:43:16.008Z,27.11
2022-08-17T10:44:38.145Z,27.33
2022-08-17T10:45:15.963Z,27.40
2022-08-17T10:46:31.269Z,27.49
2022-08-17T10:47:15.955Z,27.52
2022-08-17T10:48:14.945Z,27.63
2022-08-17T10:49:14.925Z,27.33
2022-08-17T10:50:14.923Z,27.08
2022-08-17T10:51:14.893Z,26.93
2022-08-17T10:52:15.017Z,26.80
2022-08-17T10:53:19.793Z,26.70
2022-08-17T10:54:15.894Z,26.75
2022-08-17T10:55:14.877Z,26.92
2022-08-17T10:56:14.844Z,27.02
2022-08-17T10:57:14.836Z,27.17
2022-08-17T10:58:14.816Z,27.29
2022-08-17T10:59:14.816Z,27.29
2022-08-17T11:00:14.844Z,27.30
2022-08-17T11:01:14.868Z,27.37
2022-08-17T11:02:14.776Z,27.40
2022-08-17T11:03:14.767Z,27.27
2022-08-17T11:04:14.757Z,27.27
2022-08-17T11:05:14.766Z,27.21
2022-08-17T11:06:14.728Z,27.20
2022-08-17T11:07:14.721Z,27.12
2022-08-17T11:08:14.708Z,27.07
2022-08-17T11:09:14.741Z,27.03
2022-08-17T11:10:14.692Z,26.95
2022-08-17T11:11:14.713Z,27.03
2022-08-17T11:12:14.670Z,27.14
2022-08-17T11:13:14.660Z,27.22
2022-08-17T11:14:14.650Z,27.30
2022-08-17T11:15:14.639Z,27.29
2022-08-17T11:16:14.621Z,27.35
2022-08-17T11:17:14.645Z,27.39
2022-08-17T11:18:14.601Z,27.44
2022-08-17T11:19:14.589Z,27.58
2022-08-17T11:20:14.581Z,27.64
2022-08-17T11:21:14.571Z,27.54
2022-08-17T11:22:14.561Z,27.55
2022-08-17T11:23:14.576Z,27.65
2022-08-17T11:24:14.541Z,27.71
2022-08-17T11:25:14.542Z,27.77
2022-08-17T11:26:14.534Z,27.73
2022-08-17T11:27:14.512Z,27.71
2022-08-17T11:28:14.522Z,27.78
2022-08-17T11:29:14.482Z,27.86
2022-08-17T11:30:14.760Z,27.98
2022-08-17T11:31:14.486Z,27.93
2022-08-17T11:32:14.513Z,27.90
2022-08-17T11:33:14.474Z,27.75
2022-08-17T11:34:15.467Z,27.64
2022-08-17T11:35:14.422Z,27.67
2022-08-17T11:36:14.444Z,27.75
2022-08-17T11:37:14.407Z,27.93
2022-08-17T11:38:16.282Z,28.01
2022-08-17T11:39:14.385Z,28.12
2022-08-17T11:40:14.478Z,28.26
2022-08-17T11:41:14.357Z,28.33
2022-08-17T11:42:14.337Z,28.41
2022-08-17T11:43:14.336Z,28.48
2022-08-17T11:44:14.316Z,28.39
2022-08-17T11:45:19.038Z,28.32
2022-08-17T11:46:15.327Z,28.20
2022-08-17T11:47:14.338Z,28.04
2022-08-17T11:48:27.937Z,27.74
2022-08-17T11:49:15.274Z,27.55
2022-08-17T11:50:14.256Z,27.44
2022-08-17T11:51:14.270Z,27.30
2022-08-17T11:52:14.238Z,27.05
2022-08-17T11:53:14.219Z,26.89
2022-08-17T11:54:32.293Z,26.88
2022-08-17T11:55:34.398Z,26.77
2022-08-17T11:56:15.218Z,26.65
2022-08-17T11:57:14.179Z,26.71
2022-08-17T11:58:14.172Z,26.85
2022-08-17T11:59:14.162Z,27.14
2022-08-17T12:00:14.152Z,27.49
2022-08-17T12:01:16.163Z,27.83
2022-08-17T12:02:14.174Z,28.12
2022-08-17T12:03:14.153Z,28.38
2022-08-17T12:04:14.125Z,28.62
2022-08-17T12:05:14.114Z,28.60
2022-08-17T12:06:14.081Z,28.59
2022-08-17T12:07:14.071Z,28.42
2022-08-17T12:08:14.093Z,28.37
2022-08-17T12:09:14.061Z,28.44
2022-08-17T12:10:14.035Z,28.54
2022-08-17T12:11:14.022Z,28.70
2022-08-17T12:12:14.637Z,28.86
2022-08-17T12:13:14.002Z,28.98
2022-08-17T12:14:19.222Z,29.04
2022-08-17T12:15:14.983Z,29.08
2022-08-17T12:16:13.988Z,29.05
2022-08-17T12:17:13.963Z,28.91
2022-08-17T12:18:14.944Z,29.01
2022-08-17T12:19:13.945Z,29.13
2022-08-17T12:20:14.802Z,29.23
2022-08-17T12:21:13.914Z,29.08
2022-08-17T12:22:13.903Z,29.01
2022-08-17T12:23:13.895Z,29.10
2022-08-17T12:24:13.878Z,29.20
2022-08-17T12:25:13.897Z,29.16
2022-08-17T12:26:13.857Z,29.08
2022-08-17T12:27:13.846Z,29.02
2022-08-17T12:28:17.940Z,29.08
2022-08-17T12:29:18.027Z,29.13
2022-08-17T12:30:14.846Z,29.07
2022-08-17T12:31:13.807Z,29.04
2022-08-17T12:32:13.789Z,29.17
2022-08-17T12:33:13.791Z,29.36
2022-08-17T12:34:14.770Z,29.51
2022-08-17T12:35:13.760Z,29.59
2022-08-17T12:36:13.768Z,29.60
2022-08-17T12:37:13.770Z,29.71
2022-08-17T12:38:31.806Z,29.60
2022-08-17T12:39:21.336Z,29.53
2022-08-17T12:40:14.770Z,29.32
2022-08-17T12:41:13.698Z,29.29
2022-08-17T12:42:13.724Z,29.26
2022-08-17T12:43:13.670Z,29.12
2022-08-17T12:44:13.658Z,29.22
2022-08-17T12:45:13.652Z,29.24
2022-08-17T12:46:15.441Z,29.31
2022-08-17T12:47:18.013Z,29.26
2022-08-17T12:48:14.642Z,29.17
2022-08-17T12:49:13.612Z,29.23
2022-08-17T12:50:28.194Z,29.35
2022-08-17T12:51:14.583Z,29.42
2022-08-17T12:52:13.572Z,29.31